This is the latest recevied weather packets stored in our database for station/object HB9DOZ-13. If no packets are shown the sender has not sent any weather packets the latest 10 day(s).
| Time | Temp. | Humidity | Pressure | Rain* | Wind** | Luminosity | Snow |
|---|---|---|---|---|---|---|---|
| 1777218916 | 20° C | 35% | - | 0 mm | - | - | - |
| 1777218337 | 20.56° C | 34% | - | 0 mm | - | - | - |
| 1777217717 | 20.56° C | 35% | - | 0 mm | - | - | - |
| 1777215916 | 21.11° C | 36% | - | 0 mm | - | - | - |
| 1777215317 | 21.11° C | 35% | - | 0 mm | - | - | - |
| 1777214716 | 21.11° C | 35% | - | 0 mm | - | - | - |
| 1777214117 | 21.11° C | 38% | - | 0 mm | - | - | - |
| 1777212315 | 21.11° C | 40% | - | 0 mm | - | - | - |
| 1777210516 | 20.56° C | 40% | - | 0 mm | - | - | - |
| 1777201517 | 18.89° C | 41% | - | 0 mm | - | - | - |
| 1777193117 | 17.22° C | 44% | - | 0 mm | - | - | - |
| 1777190716 | 15.56° C | 49% | - | 0 mm | - | - | - |
| 1777188317 | 13.33° C | 65% | - | 0 mm | - | - | - |
| 1777183518 | 11.11° C | 67% | - | 0 mm | - | - | - |
| 1777180517 | 10° C | 61% | - | 0 mm | - | - | - |
| 1777179937 | 10° C | 60% | - | 0 mm | - | - | - |
| 1777178116 | 8.89° C | 64% | - | 0 mm | - | - | - |
| 1777173916 | 11.67° C | 48% | - | 0 mm | - | - | - |
| 1777172716 | 11.11° C | 51% | - | 0 mm | - | - | - |
| 1777164916 | 12.78° C | 54% | - | 0 mm | - | - | - |
| 1777162557 | 12.78° C | 55% | - | 0 mm | - | - | - |
| 1777149917 | 16.67° C | 39% | - | 0 mm | - | - | - |
| 1777147517 | 16.67° C | 37% | - | 0 mm | - | - | - |
| 1777145116 | 17.78° C | 38% | - | 0 mm | - | - | - |
| 1777139716 | 18.89° C | 36% | - | 0 mm | - | - | - |
* Rain latest hour (hover to see other rain measurements)
** Current wind speed in m/s (hover to see current wind gust speed)